Time;durP1;ratioP1;P1;durP2;ratioP2;P2;SDS_P1;SDS_P2;PMS_P1;PMS_P2;Temp;Humidity;BMP_temperature;BMP_pressure;BME280_temperature;BME280_humidity;BME280_pressure;Samples;Min_cycle;Max_cycle;Signal;HPM_P1;HPM_P2
2021/04/16 00:00:52;;;;;;;8.93;5.28;;;;;;;1.56;55.92;94143.50;5074154;28;20024;-78
2021/04/16 00:03:18;;;;;;;13.85;6.10;;;;;;;1.58;55.83;94143.25;5067529;28;20112;-77
2021/04/16 00:05:44;;;;;;;11.43;6.13;;;;;;;1.57;55.58;94146.94;5057293;28;20460;-78
2021/04/16 00:08:17;;;;;;;9.15;5.60;;;;;;;1.52;55.35;94144.25;5074501;28;20055;-78
2021/04/16 00:10:51;;;;;;;7.85;4.95;;;;;;;1.54;55.44;94147.44;5074214;28;20020;-78
2021/04/16 00:13:19;;;;;;;7.90;5.68;;;;;;;1.53;55.59;94143.22;5092595;28;20028;-78
2021/04/16 00:15:46;;;;;;;8.77;4.60;;;;;;;1.51;55.52;94142.69;5065629;28;20082;-78
2021/04/16 00:18:14;;;;;;;8.90;5.20;;;;;;;1.50;55.33;94143.72;5072894;28;20016;-78
2021/04/16 00:20:40;;;;;;;13.93;5.65;;;;;;;1.48;55.50;94132.66;5092061;28;20028;-78
2021/04/16 00:23:06;;;;;;;7.75;5.20;;;;;;;1.48;54.72;94136.06;5092471;28;20122;-78
2021/04/16 00:25:33;;;;;;;6.95;4.53;;;;;;;1.46;54.78;94140.00;5058807;28;20479;-78
2021/04/16 00:27:59;;;;;;;8.18;5.13;;;;;;;1.53;54.65;94125.63;5092401;28;20028;-78
2021/04/16 00:30:38;;;;;;;11.43;5.45;;;;;;;1.54;54.37;94147.44;5058680;28;20387;-78
2021/04/16 00:33:04;;;;;;;8.75;5.60;;;;;;;1.51;53.59;94137.44;5092086;28;20172;-78
2021/04/16 00:35:30;;;;;;;8.52;5.22;;;;;;;1.49;53.30;94134.25;5073811;28;20027;-79
2021/04/16 00:37:55;;;;;;;9.20;5.28;;;;;;;1.51;53.39;94138.22;5056980;28;20032;-78
2021/04/16 00:40:26;;;;;;;8.25;5.38;;;;;;;1.46;53.54;94130.28;5073628;28;20035;-78
2021/04/16 00:42:57;;;;;;;10.90;5.25;;;;;;;1.50;53.90;94141.88;5065305;28;20071;-78
2021/04/16 00:45:26;;;;;;;8.98;5.85;;;;;;;1.55;54.20;94143.78;5091805;28;20094;-77
2021/04/16 00:47:54;;;;;;;9.07;5.75;;;;;;;1.54;54.02;94158.72;5073313;28;20088;-78
2021/04/16 00:50:25;;;;;;;11.05;6.55;;;;;;;1.57;53.94;94157.44;5073388;28;20080;-78
2021/04/16 00:52:51;;;;;;;8.32;5.40;;;;;;;1.54;53.91;94150.84;5073335;28;20020;-78
2021/04/16 00:55:18;;;;;;;9.65;6.10;;;;;;;1.50;54.07;94155.00;5067603;28;20551;-78
2021/04/16 00:57:44;;;;;;;8.23;5.45;;;;;;;1.43;53.75;94159.69;5067027;28;20115;-78
2021/04/16 01:00:13;;;;;;;7.57;5.47;;;;;;;1.46;53.77;94150.50;5091556;28;20469;-78
2021/04/16 01:02:38;;;;;;;11.43;6.07;;;;;;;1.51;54.06;94148.72;5062275;28;20032;-78
2021/04/16 01:05:07;;;;;;;13.07;6.07;;;;;;;1.47;53.81;94145.00;5073318;28;20032;-78
2021/04/16 01:07:32;;;;;;;10.75;5.68;;;;;;;1.40;53.76;94142.59;5064614;28;20028;-76
2021/04/16 01:09:58;;;;;;;10.88;6.10;;;;;;;1.47;53.76;94142.38;5073005;28;20051;-76
2021/04/16 01:12:23;;;;;;;10.02;5.35;;;;;;;1.44;53.91;94144.72;5091239;28;20035;-75
2021/04/16 01:14:57;;;;;;;9.98;5.63;;;;;;;1.39;53.88;94129.69;5090913;28;20136;-75
2021/04/16 01:17:23;;;;;;;7.22;5.30;;;;;;;1.50;54.09;94139.25;5068787;28;20028;-75
2021/04/16 01:19:59;;;;;;;9.02;4.90;;;;;;;1.40;53.43;94139.16;5089988;28;20034;-75
2021/04/16 01:22:38;;;;;;;9.07;4.85;;;;;;;1.48;53.62;94143.16;5072794;28;20028;-75
2021/04/16 01:25:07;;;;;;;10.93;5.25;;;;;;;1.35;53.57;94133.88;5055803;28;20031;-75
2021/04/16 01:27:32;;;;;;;8.35;4.75;;;;;;;1.32;54.14;94139.59;5091093;28;20039;-75
2021/04/16 01:30:09;;;;;;;9.20;4.55;;;;;;;1.28;53.99;94141.13;5072408;28;20024;-75
2021/04/16 01:32:35;;;;;;;9.23;5.05;;;;;;;1.29;54.02;94135.66;5072789;28;20028;-75
2021/04/16 01:35:13;;;;;;;6.43;4.53;;;;;;;1.32;54.01;94131.72;5090368;28;20025;-75
2021/04/16 01:37:39;;;;;;;6.63;4.65;;;;;;;1.30;53.94;94131.97;5072495;28;20034;-76
2021/04/16 01:40:06;;;;;;;10.48;4.32;;;;;;;1.35;54.10;94133.88;5090279;28;20492;-76
2021/04/16 01:42:32;;;;;;;9.00;5.13;;;;;;;1.29;53.46;94127.75;5072221;28;20123;-75
2021/04/16 01:44:58;;;;;;;7.07;4.75;;;;;;;1.31;53.35;94123.06;5090858;28;20106;-76
2021/04/16 01:47:24;;;;;;;10.70;4.50;;;;;;;1.31;52.90;94133.56;5090600;28;20054;-76
2021/04/16 01:49:52;;;;;;;6.25;4.32;;;;;;;1.26;53.13;94138.75;5090768;28;20400;-75
2021/04/16 01:52:26;;;;;;;9.15;4.47;;;;;;;1.33;53.10;94141.97;5090258;28;20034;-76
2021/04/16 01:54:53;;;;;;;7.55;4.43;;;;;;;1.29;52.96;94125.13;5090617;28;20111;-76
2021/04/16 01:57:28;;;;;;;10.20;3.92;;;;;;;1.30;52.59;94126.72;5072020;28;20407;-75
2021/04/16 01:59:55;;;;;;;8.95;4.15;;;;;;;1.38;52.33;94122.84;5057796;28;20454;-75
2021/04/16 02:02:27;;;;;;;7.97;4.32;;;;;;;1.47;52.81;94117.97;5054591;28;20075;-75
2021/04/16 02:04:53;;;;;;;8.25;4.18;;;;;;;1.44;52.07;94116.59;5090419;28;20107;-75
2021/04/16 02:07:19;;;;;;;6.43;4.15;;;;;;;1.45;51.80;94127.91;5090392;28;20414;-75
2021/04/16 02:09:45;;;;;;;9.48;4.25;;;;;;;1.43;51.30;94124.75;5072158;28;20588;-76
2021/04/16 02:12:14;;;;;;;6.60;3.95;;;;;;;1.52;51.72;94128.50;5065090;28;20039;-76
2021/04/16 02:14:40;;;;;;;11.18;3.50;;;;;;;1.55;51.25;94128.00;5089966;28;20141;-75
2021/04/16 02:17:17;;;;;;;6.97;3.72;;;;;;;1.55;51.06;94128.00;5090135;28;20041;-76
2021/04/16 02:19:42;;;;;;;5.50;3.67;;;;;;;1.58;51.62;94128.28;5063079;28;20027;-76
2021/04/16 02:22:14;;;;;;;9.32;3.83;;;;;;;1.54;51.89;94123.78;5090162;28;20482;-75
2021/04/16 02:24:39;;;;;;;8.32;4.07;;;;;;;1.54;51.24;94127.19;5090069;28;20024;-75
2021/04/16 02:27:05;;;;;;;5.68;3.25;;;;;;;1.54;50.60;94121.16;5090155;28;20096;-75
2021/04/16 02:29:31;;;;;;;6.68;3.63;;;;;;;1.53;50.48;94125.63;5090114;28;20078;-75
2021/04/16 02:31:56;;;;;;;5.97;3.05;;;;;;;1.57;50.57;94120.66;5071920;28;20133;-75
2021/04/16 02:34:26;;;;;;;6.20;3.72;;;;;;;1.58;50.49;94127.50;5071900;28;20032;-75
2021/04/16 02:36:55;;;;;;;7.13;3.83;;;;;;;1.55;50.89;94125.38;5066791;28;20076;-75
2021/04/16 02:39:22;;;;;;;5.55;3.55;;;;;;;1.43;51.69;94128.16;5087237;28;20040;-75
2021/04/16 02:41:47;;;;;;;6.55;3.75;;;;;;;1.47;52.08;94120.59;5089525;28;20059;-75
2021/04/16 02:44:13;;;;;;;5.90;3.60;;;;;;;1.38;52.43;94123.66;5089828;28;20028;-75
2021/04/16 02:46:39;;;;;;;8.52;3.97;;;;;;;1.43;52.57;94135.25;5056128;28;20088;-75
2021/04/16 02:49:05;;;;;;;6.45;4.40;;;;;;;1.47;52.36;94129.25;5063373;28;20032;-77
2021/04/16 02:51:31;;;;;;;7.55;4.03;;;;;;;1.46;52.80;94137.38;5064258;28;20485;-77
2021/04/16 02:53:56;;;;;;;10.40;4.38;;;;;;;1.50;52.78;94130.56;5090030;28;20031;-76
2021/04/16 02:56:22;;;;;;;9.13;3.55;;;;;;;1.43;51.96;94130.78;5089920;28;20080;-76
2021/04/16 02:58:48;;;;;;;6.88;3.20;;;;;;;1.54;52.19;94134.28;5089391;28;20024;-78
2021/04/16 03:01:13;;;;;;;10.45;3.75;;;;;;;1.58;52.33;94136.16;5089616;28;20157;-77
2021/04/16 03:03:38;;;;;;;13.80;4.60;;;;;;;1.62;52.64;94133.06;5062839;28;20032;-76
2021/04/16 03:06:05;;;;;;;7.60;4.80;;;;;;;1.64;52.59;94136.22;5089696;28;20028;-79
2021/04/16 03:08:31;;;;;;;5.70;3.58;;;;;;;1.56;53.26;94134.84;5089666;28;20070;-78
2021/04/16 03:10:57;;;;;;;7.18;4.22;;;;;;;1.56;53.81;94129.56;5062824;28;20059;-79
2021/04/16 03:13:22;;;;;;;7.15;4.28;;;;;;;1.45;54.14;94131.34;5089678;28;20096;-79
2021/04/16 03:15:48;;;;;;;7.97;4.50;;;;;;;1.49;53.94;94129.78;5089450;28;20492;-79
2021/04/16 03:18:14;;;;;;;8.80;4.13;;;;;;;1.40;53.83;94121.56;5089542;28;20036;-76
2021/04/16 03:20:40;;;;;;;6.72;4.00;;;;;;;1.34;54.25;94132.25;5089143;28;20032;-75
2021/04/16 03:23:06;;;;;;;7.07;3.85;;;;;;;1.25;52.47;94129.31;5066199;28;20067;-76
2021/04/16 03:25:32;;;;;;;4.20;3.13;;;;;;;1.24;48.59;94132.16;5051561;28;20052;-76
2021/04/16 03:27:57;;;;;;;10.82;3.38;;;;;;;1.26;47.00;94125.63;5062600;28;20024;-75
2021/04/16 03:30:25;;;;;;;4.47;2.28;;;;;;;1.43;47.18;94137.88;5071388;28;20065;-76
2021/04/16 03:32:51;;;;;;;7.40;3.83;;;;;;;1.54;50.34;94142.16;5092317;28;20471;-76
2021/04/16 03:35:18;;;;;;;9.98;3.28;;;;;;;1.53;48.75;94145.84;5093475;28;20074;-76
2021/04/16 03:37:43;;;;;;;11.63;3.60;;;;;;;1.55;50.14;94149.03;5093478;28;20132;-76
2021/04/16 03:40:12;;;;;;;6.50;3.38;;;;;;;1.51;50.29;94145.31;5075162;28;20142;-75
2021/04/16 03:42:38;;;;;;;6.10;3.65;;;;;;;1.48;49.56;94145.78;5067684;28;20037;-76
2021/04/16 03:45:04;;;;;;;4.68;3.03;;;;;;;1.47;50.03;94146.84;5058164;28;20393;-76
2021/04/16 03:47:30;;;;;;;6.85;4.18;;;;;;;1.49;52.14;94148.19;5092978;28;20100;-77
2021/04/16 03:49:56;;;;;;;14.00;4.07;;;;;;;1.48;52.19;94149.22;5092537;28;20024;-76
2021/04/16 03:52:26;;;;;;;9.95;4.60;;;;;;;1.52;52.58;94155.53;5074748;28;20080;-77
2021/04/16 03:54:52;;;;;;;9.75;4.65;;;;;;;1.49;53.03;94153.44;5067205;28;20400;-77
2021/04/16 03:57:18;;;;;;;11.95;4.35;;;;;;;1.41;53.02;94161.75;5074561;28;20032;-78
2021/04/16 03:59:44;;;;;;;7.50;4.30;;;;;;;1.23;53.57;94162.09;5067552;28;20040;-79
2021/04/16 04:02:09;;;;;;;10.88;4.80;;;;;;;1.14;54.18;94159.91;5092249;28;20129;-76
2021/04/16 04:04:34;;;;;;;7.97;5.13;;;;;;;1.14;54.71;94166.97;5092816;28;20028;-75
2021/04/16 04:07:00;;;;;;;9.82;4.35;;;;;;;1.05;55.28;94166.63;5092484;28;20028;-76
2021/04/16 04:09:25;;;;;;;10.82;4.63;;;;;;;0.95;55.62;94167.31;5070176;28;20036;-77
2021/04/16 04:11:51;;;;;;;7.60;4.45;;;;;;;0.89;55.96;94167.50;5055226;28;20407;-76
2021/04/16 04:14:16;;;;;;;8.80;4.55;;;;;;;0.85;56.09;94164.56;5072769;28;20086;-76
2021/04/16 04:16:57;;;;;;;8.48;5.22;;;;;;;0.92;56.41;94164.41;5074260;28;20462;-76
2021/04/16 04:19:24;;;;;;;9.32;4.38;;;;;;;0.97;56.57;94170.47;5092403;28;20031;-75
2021/04/16 04:21:51;;;;;;;13.13;4.95;;;;;;;1.03;56.61;94168.72;5092208;28;20016;-75
2021/04/16 04:24:17;;;;;;;8.48;5.03;;;;;;;1.09;56.16;94166.94;5091820;28;20043;-75
2021/04/16 04:26:43;;;;;;;9.60;5.65;;;;;;;1.07;56.22;94172.44;5092376;28;20024;-75
2021/04/16 04:29:09;;;;;;;14.15;5.97;;;;;;;1.05;56.35;94171.09;5058408;28;20032;-76
2021/04/16 04:31:36;;;;;;;18.58;6.32;;;;;;;1.11;56.46;94176.16;5092171;28;20031;-74
2021/04/16 04:34:02;;;;;;;17.50;6.85;;;;;;;1.23;56.31;94178.66;5073997;28;20040;-75
2021/04/16 04:36:28;;;;;;;13.32;6.88;;;;;;;1.31;56.05;94178.22;5078743;28;20038;-75
2021/04/16 04:38:53;;;;;;;14.35;5.53;;;;;;;1.37;56.01;94174.59;5074053;28;20024;-80
2021/04/16 04:41:19;;;;;;;16.20;6.70;;;;;;;1.46;55.83;94180.19;5065104;28;20131;-81
2021/04/16 04:43:46;;;;;;;23.50;6.88;;;;;;;1.60;55.72;94175.34;5091814;28;20506;-80
2021/04/16 04:46:12;;;;;;;16.83;6.93;;;;;;;1.72;55.98;94173.34;5073280;28;20032;-81
2021/04/16 04:48:37;;;;;;;16.33;6.88;;;;;;;1.82;55.73;94174.47;5067910;28;20035;-80
2021/04/16 04:51:03;;;;;;;19.33;8.38;;;;;;;1.94;55.87;94183.00;5054050;28;20045;-75
2021/04/16 04:53:29;;;;;;;22.02;8.75;;;;;;;2.09;55.91;94179.69;5091373;28;20030;-80
2021/04/16 04:55:55;;;;;;;18.13;8.85;;;;;;;2.23;56.47;94182.69;5092310;28;20076;-81
2021/04/16 04:58:20;;;;;;;15.05;8.98;;;;;;;2.32;56.00;94189.84;5064179;28;20016;-79
2021/04/16 05:00:46;;;;;;;19.55;9.40;;;;;;;2.43;55.60;94190.69;5060520;28;20032;-80
2021/04/16 05:03:11;;;;;;;29.77;10.60;;;;;;;2.53;55.82;94184.72;5054677;28;20016;-76
2021/04/16 05:05:36;;;;;;;17.20;8.80;;;;;;;2.62;55.45;94188.44;5091296;28;20145;-76
2021/04/16 05:08:02;;;;;;;17.77;8.68;;;;;;;2.73;55.22;94194.56;5058173;28;20133;-76
2021/04/16 05:10:27;;;;;;;22.95;9.18;;;;;;;2.78;55.26;94195.38;5090840;28;20012;-81
2021/04/16 05:12:53;;;;;;;14.98;8.25;;;;;;;2.87;55.16;94193.06;5093385;28;20444;-79
2021/04/16 05:15:19;;;;;;;19.35;8.07;;;;;;;2.97;54.65;94195.72;5069708;28;20036;-79
2021/04/16 05:17:45;;;;;;;15.32;7.97;;;;;;;3.05;54.62;94201.53;5069320;28;20031;-81
2021/04/16 05:20:11;;;;;;;16.05;9.07;;;;;;;3.12;54.51;94192.38;5053021;28;20032;-80
2021/04/16 05:22:37;;;;;;;19.95;8.68;;;;;;;3.24;54.13;94202.69;5072445;28;20195;-79
2021/04/16 05:25:03;;;;;;;17.20;8.65;;;;;;;3.29;53.84;94205.31;5072983;28;20209;-79
2021/04/16 05:27:29;;;;;;;19.67;10.27;;;;;;;3.33;53.48;94203.75;5067072;28;20031;-79
2021/04/16 05:29:54;;;;;;;16.35;8.73;;;;;;;3.40;53.58;94203.53;5061541;28;20403;-79
2021/04/16 05:32:20;;;;;;;23.20;8.48;;;;;;;3.44;53.41;94198.50;5090111;28;20035;-76
2021/04/16 05:34:46;;;;;;;18.25;9.23;;;;;;;3.49;53.06;94203.81;5107162;28;20028;-76
2021/04/16 05:37:13;;;;;;;21.98;8.98;;;;;;;3.56;52.80;94199.88;5092324;28;20047;-78
2021/04/16 05:39:38;;;;;;;23.02;9.00;;;;;;;3.61;52.01;94205.16;5064037;28;20452;-76
2021/04/16 05:42:04;;;;;;;16.10;7.68;;;;;;;3.49;51.61;94211.72;5072465;28;20123;-76
2021/04/16 05:44:29;;;;;;;9.85;4.95;;;;;;;3.39;48.33;94207.19;5090816;28;20039;-76
2021/04/16 05:46:56;;;;;;;8.68;4.20;;;;;;;3.33;48.94;94210.88;5064184;28;20029;-76
2021/04/16 05:49:24;;;;;;;13.52;4.82;;;;;;;3.36;48.24;94205.88;5056988;28;20036;-76
2021/04/16 05:51:50;;;;;;;14.63;6.65;;;;;;;3.37;49.18;94206.66;5090592;28;20360;-76
2021/04/16 05:54:15;;;;;;;9.35;4.97;;;;;;;3.33;47.73;94209.03;5105360;28;20031;-76
2021/04/16 05:56:41;;;;;;;10.93;4.78;;;;;;;3.26;47.88;94202.41;5090275;28;20024;-76
2021/04/16 05:59:06;;;;;;;11.98;5.32;;;;;;;3.30;47.45;94199.03;5055457;28;20024;-75
2021/04/16 06:01:35;;;;;;;10.65;4.75;;;;;;;3.27;47.46;94202.16;5065270;28;20032;-75
2021/04/16 06:04:00;;;;;;;14.10;5.85;;;;;;;3.28;48.45;94198.47;5071909;28;20073;-76
2021/04/16 06:06:26;;;;;;;15.30;5.22;;;;;;;3.33;48.43;94201.13;5090391;28;20052;-75
2021/04/16 06:08:51;;;;;;;11.27;4.60;;;;;;;3.38;48.34;94198.50;5090330;28;20024;-78
2021/04/16 06:11:17;;;;;;;8.60;4.72;;;;;;;3.34;47.85;94186.13;5069169;28;20020;-73
2021/04/16 06:13:42;;;;;;;11.68;5.68;;;;;;;3.30;48.38;94204.28;5092061;28;20498;-78
2021/04/16 06:16:08;;;;;;;11.48;4.82;;;;;;;3.31;48.55;94197.94;5107060;28;20028;-78
2021/04/16 06:18:34;;;;;;;7.80;4.45;;;;;;;3.33;47.67;94201.13;5064810;28;20082;-78
2021/04/16 06:21:00;;;;;;;18.90;4.97;;;;;;;3.35;48.65;94191.13;5063312;28;20024;-79
2021/04/16 06:23:26;;;;;;;10.10;4.35;;;;;;;3.49;47.35;94195.91;5073276;28;20077;-79
2021/04/16 06:25:51;;;;;;;11.52;4.88;;;;;;;3.61;46.77;94204.38;5067496;28;20062;-78
2021/04/16 06:28:17;;;;;;;8.23;4.40;;;;;;;3.52;45.90;94198.81;5097624;28;20039;-78
2021/04/16 06:30:44;;;;;;;9.48;4.43;;;;;;;3.56;47.03;94196.44;5077598;28;20024;-79
2021/04/16 06:33:12;;;;;;;11.95;5.82;;;;;;;3.63;48.67;94191.72;5065997;28;20044;-79
2021/04/16 06:35:38;;;;;;;8.48;4.22;;;;;;;3.63;46.47;94191.72;5059057;28;20510;-77
2021/04/16 06:38:04;;;;;;;11.57;4.88;;;;;;;3.71;47.45;94203.59;5099677;28;20028;-78
2021/04/16 06:40:30;;;;;;;13.00;5.57;;;;;;;3.76;48.04;94191.19;5066702;28;20028;-79
2021/04/16 06:42:56;;;;;;;12.68;5.30;;;;;;;3.90;48.16;94195.97;5063720;28;20044;-79
2021/04/16 06:45:29;;;;;;;7.13;4.70;;;;;;;3.94;45.52;94194.38;5059323;28;20066;-77
2021/04/16 06:47:59;;;;;;;14.25;5.40;;;;;;;4.00;47.51;94188.06;5089959;28;20032;-80
2021/04/16 06:50:29;;;;;;;9.82;5.13;;;;;;;4.03;46.94;94206.00;5064822;28;20028;-78
2021/04/16 06:53:11;;;;;;;8.35;4.63;;;;;;;4.11;47.07;94199.41;5056705;28;20020;-81
2021/04/16 06:56:03;;;;;;;12.25;5.70;;;;;;;4.25;46.80;94192.53;5058128;28;20156;-78
2021/04/16 06:58:33;;;;;;;;;;;;;;;4.31;45.50;94201.25;5071619;28;20462;-79
2021/04/16 07:01:14;;;;;;;8.23;5.05;;;;;;;4.33;45.53;94196.50;5063721;28;19916;-78
2021/04/16 07:03:47;;;;;;;16.33;5.27;;;;;;;4.33;46.41;94192.00;5060513;28;20110;-79
2021/04/16 07:06:31;;;;;;;10.73;5.30;;;;;;;4.38;46.50;94212.34;5060056;28;20132;-79
2021/04/16 07:09:17;;;;;;;8.98;5.07;;;;;;;4.22;46.51;94207.06;5096627;28;20020;-80
2021/04/16 07:11:54;;;;;;;8.27;5.07;;;;;;;4.30;47.49;94213.66;5062871;28;20024;-81
2021/04/16 07:14:37;;;;;;;11.30;6.07;;;;;;;4.38;47.97;94218.41;5092913;28;20533;-84
2021/04/16 07:17:04;;;;;;;14.10;5.13;;;;;;;4.38;45.26;94217.63;5075895;28;20090;-83
2021/04/16 07:19:31;;;;;;;8.85;6.40;;;;;;;4.28;46.26;94207.06;5060093;28;20024;-85
2021/04/16 07:22:06;;;;;;;9.80;5.07;;;;;;;4.33;46.71;94209.69;5071412;28;20039;-88
2021/04/16 07:24:33;;;;;;;16.85;5.70;;;;;;;4.35;46.29;94213.63;5068276;28;20023;-83
2021/04/16 07:27:20;;;;;;;8.45;4.63;;;;;;;4.25;47.24;94218.91;5058578;28;20085;-82
2021/04/16 07:29:57;;;;;;;12.00;5.45;;;;;;;4.33;47.58;94204.41;5055570;28;20092;-83
2021/04/16 07:32:25;;;;;;;8.35;5.15;;;;;;;4.47;45.33;94218.66;5063814;28;20034;-81
2021/04/16 07:34:51;;;;;;;13.13;5.28;;;;;;;4.43;45.40;94221.03;5075061;28;20024;-82
2021/04/16 07:37:26;;;;;;;7.10;4.55;;;;;;;4.53;46.07;94214.16;5068058;28;20040;-82
2021/04/16 07:39:54;;;;;;;10.65;5.03;;;;;;;4.64;45.79;94210.47;5067155;28;20055;-82
2021/04/16 07:42:23;;;;;;;8.55;5.03;;;;;;;4.70;44.35;94208.59;5070535;28;20038;-84
2021/04/16 07:45:26;;;;;;;12.00;4.95;;;;;;;4.74;45.00;94201.72;5066183;28;20495;-83
2021/04/16 07:48:13;;;;;;;5.20;4.07;;;;;;;4.91;44.39;94219.91;5085164;28;20094;-87
2021/04/16 07:50:52;;;;;;;15.23;4.68;;;;;;;4.86;43.66;94212.78;5065718;28;20021;-90
2021/04/16 07:53:36;;;;;;;6.90;4.38;;;;;;;4.83;44.87;94200.91;5064154;28;20100;-80
2021/04/16 07:56:16;;;;;;;10.75;4.90;;;;;;;4.96;43.38;94207.47;5062941;28;20024;-77
2021/04/16 07:58:45;;;;;;;9.18;5.05;;;;;;;5.02;43.88;94205.59;5067556;28;20028;-83
2021/04/16 08:01:11;;;;;;;9.23;4.55;;;;;;;5.15;43.13;94198.94;5074643;28;20440;-80
2021/04/16 08:03:49;;;;;;;7.43;4.47;;;;;;;5.18;43.25;94203.69;5066106;28;20479;-80
2021/04/16 08:06:46;;;;;;;7.97;4.70;;;;;;;5.32;44.47;94210.00;5070333;28;20033;-75
2021/04/16 08:09:12;;;;;;;12.35;3.97;;;;;;;5.51;42.70;94209.38;5064174;28;20058;-78
2021/04/16 08:11:38;;;;;;;11.05;4.28;;;;;;;5.65;41.60;94213.00;5092713;28;20111;-78
2021/04/16 08:14:20;;;;;;;11.93;4.50;;;;;;;5.78;41.30;94212.41;5069866;28;20027;-78
2021/04/16 08:16:57;;;;;;;8.93;3.95;;;;;;;5.90;40.22;94208.63;5092092;28;20028;-82
2021/04/16 08:19:35;;;;;;;6.63;3.22;;;;;;;5.89;36.22;94202.53;5053870;28;20074;-80
2021/04/16 08:22:24;;;;;;;7.28;2.72;;;;;;;5.89;34.44;94205.19;5054297;28;20079;-82
2021/04/16 08:24:58;;;;;;;12.25;3.28;;;;;;;5.89;35.93;94215.00;5061237;28;20016;-83
2021/04/16 08:27:33;;;;;;;7.57;3.90;;;;;;;5.81;38.71;94225.06;5055046;28;20099;-85
2021/04/16 08:30:06;;;;;;;7.80;3.80;;;;;;;5.83;38.06;94207.06;5058686;28;20051;-77
2021/04/16 08:32:44;;;;;;;9.43;4.15;;;;;;;5.92;38.03;94211.78;5074341;28;20069;-76
2021/04/16 08:35:27;;;;;;;14.00;3.80;;;;;;;6.00;38.57;94213.88;5091957;28;20020;-80
2021/04/16 08:38:24;;;;;;;8.93;3.42;;;;;;;5.90;39.14;94198.03;5069649;28;20559;-80
2021/04/16 08:40:54;;;;;;;7.03;3.55;;;;;;;5.98;38.20;94198.28;5089979;28;20039;-80
2021/04/16 08:43:25;;;;;;;5.57;3.22;;;;;;;6.13;35.96;94201.88;5073756;28;20023;-88
2021/04/16 08:45:51;;;;;;;10.87;3.73;;;;;;;6.17;38.31;94193.13;5093563;28;20103;-87
2021/04/16 08:48:23;;;;;;;12.00;3.78;;;;;;;6.26;37.81;94209.19;5091695;28;20273;-82
2021/04/16 08:50:52;;;;;;;;;;;;;;;6.27;37.17;94191.44;5072337;28;20474;-83
2021/04/16 08:53:18;;;;;;;8.00;3.90;;;;;;;6.25;37.04;94170.56;5065505;28;20011;-83
2021/04/16 08:55:46;;;;;;;19.92;4.15;;;;;;;6.28;35.65;94187.75;5066713;28;20024;-81
2021/04/16 08:58:27;;;;;;;8.73;3.28;;;;;;;6.25;33.80;94178.50;5068402;28;20024;-84
2021/04/16 09:00:59;;;;;;;8.88;3.03;;;;;;;6.27;34.41;94175.56;5090651;28;20020;-83
2021/04/16 09:03:26;;;;;;;;;;;;;;;6.37;33.02;94170.19;5092283;28;20119;-77
2021/04/16 09:06:03;;;;;;;6.25;3.03;;;;;;;6.35;32.85;94156.44;5090990;28;20299;-87
2021/04/16 09:08:39;;;;;;;10.52;3.30;;;;;;;6.34;34.07;94160.94;5090546;28;20028;-84
2021/04/16 09:11:09;;;;;;;4.47;3.10;;;;;;;6.43;33.77;94147.88;5065226;28;20457;-82
2021/04/16 09:13:38;;;;;;;7.25;3.53;;;;;;;6.58;35.37;94153.03;5063087;28;20020;-84
2021/04/16 09:16:16;;;;;;;10.55;3.20;;;;;;;6.62;35.28;94155.91;5059689;28;20038;-82
2021/04/16 09:18:42;;;;;;;6.28;3.47;;;;;;;6.63;35.95;94150.34;5062972;28;20400;-82
2021/04/16 09:21:28;;;;;;;8.73;3.78;;;;;;;6.52;36.83;94146.22;5062862;28;20060;-77
2021/04/16 09:24:00;;;;;;;9.02;4.05;;;;;;;6.59;36.44;94143.22;5067617;28;20086;-85
2021/04/16 09:26:43;;;;;;;6.85;3.55;;;;;;;6.66;36.86;94135.75;5097967;28;20085;-85
2021/04/16 09:29:28;;;;;;;8.27;5.00;;;;;;;6.72;37.13;94139.91;5065065;28;20035;-83
2021/04/16 09:31:58;;;;;;;7.30;3.95;;;;;;;6.80;37.49;94151.78;5063491;28;20149;-87
2021/04/16 09:34:44;;;;;;;6.13;4.00;;;;;;;6.70;37.29;94130.69;5065453;28;20027;-85
2021/04/16 09:37:30;;;;;;;6.60;3.72;;;;;;;6.70;38.16;94133.34;5087485;28;20024;-82
2021/04/16 09:40:14;;;;;;;6.82;3.83;;;;;;;6.76;37.43;94130.34;5069580;28;20134;-82
2021/04/16 09:42:43;;;;;;;6.95;3.30;;;;;;;6.74;37.03;94137.78;5068895;28;20051;-82
2021/04/16 09:45:13;;;;;;;7.97;3.63;;;;;;;6.71;38.13;94137.53;5068060;28;20115;-77
2021/04/16 09:47:41;;;;;;;10.98;4.47;;;;;;;6.64;37.38;94127.28;5085063;28;20032;-84
2021/04/16 09:50:21;;;;;;;8.10;3.28;;;;;;;6.67;38.13;94118.00;5090158;28;20040;-86
2021/04/16 09:52:52;;;;;;;5.53;3.78;;;;;;;6.81;38.45;94137.44;5092054;28;20020;-79
2021/04/16 09:55:45;;;;;;;7.25;4.20;;;;;;;6.91;38.07;94128.59;5064104;28;20035;-75
2021/04/16 09:58:33;;;;;;;6.75;3.20;;;;;;;6.98;37.65;94123.72;5090361;28;20042;-77
2021/04/16 10:01:08;;;;;;;7.28;4.30;;;;;;;7.06;38.50;94122.31;5087527;28;20024;-76
2021/04/16 10:04:01;;;;;;;5.32;3.50;;;;;;;7.14;36.81;94113.72;5089453;28;20399;-75
2021/04/16 10:06:32;;;;;;;8.00;3.65;;;;;;;7.14;37.83;94119.03;5061754;28;20420;-74
2021/04/16 10:09:16;;;;;;;7.85;3.20;;;;;;;7.28;36.90;94103.22;5089523;28;20047;-76
2021/04/16 10:11:46;;;;;;;5.65;3.60;;;;;;;7.35;36.52;94115.03;5061905;28;20019;-75
2021/04/16 10:14:21;;;;;;;6.68;4.00;;;;;;;7.36;36.85;94107.88;5060057;28;20032;-76
2021/04/16 10:17:01;;;;;;;12.77;4.07;;;;;;;7.51;36.59;94122.78;5089035;28;20028;-75
2021/04/16 10:19:33;;;;;;;8.57;3.40;;;;;;;7.65;36.19;94097.09;5055791;28;20153;-75
2021/04/16 10:22:29;;;;;;;8.23;3.60;;;;;;;8.01;35.81;94099.22;5088909;28;20043;-74
2021/04/16 12:39:42;;;;;;;7.45;3.00;;;;;;;11.41;28.21;94000.56;5089278;28;20556;-79
2021/04/16 12:42:09;;;;;;;9.10;3.67;;;;;;;11.43;28.42;93995.69;5068971;28;20043;-80
2021/04/16 12:44:50;;;;;;;6.15;3.30;;;;;;;11.43;28.22;94001.81;5091243;28;20028;-82
2021/04/16 12:47:30;;;;;;;7.97;3.17;;;;;;;11.33;28.36;93999.44;5058789;28;20031;-80
2021/04/16 12:49:57;;;;;;;4.97;2.75;;;;;;;11.20;28.60;93989.72;5091335;28;20040;-81
2021/04/16 12:52:24;;;;;;;4.72;3.33;;;;;;;10.99;28.76;93979.69;5090813;28;20024;-78
2021/04/16 12:54:52;;;;;;;8.27;3.65;;;;;;;10.91;29.03;93980.44;5068483;28;20040;-80
2021/04/16 12:57:22;;;;;;;5.57;3.17;;;;;;;11.15;28.94;93985.31;5090987;28;20027;-81
2021/04/16 12:59:49;;;;;;;7.22;3.30;;;;;;;11.28;28.58;93983.63;5054927;28;20028;-79
2021/04/16 13:02:22;;;;;;;6.22;3.15;;;;;;;11.42;28.13;93984.25;5091233;28;20036;-80
2021/04/16 13:04:48;;;;;;;7.38;3.30;;;;;;;11.65;27.44;93986.72;5062528;28;20072;-81
2021/04/16 13:07:14;;;;;;;4.85;3.10;;;;;;;11.90;28.17;93990.47;5090466;28;20024;-77
2021/04/16 13:09:39;;;;;;;8.07;2.75;;;;;;;12.09;27.78;93984.78;5058425;28;20033;-82
2021/04/16 13:12:06;;;;;;;7.15;3.45;;;;;;;11.96;26.78;93991.09;5090528;28;20107;-82
2021/04/16 13:14:31;;;;;;;7.03;3.22;;;;;;;11.84;27.13;93989.03;5062437;28;20020;-81
2021/04/16 13:16:57;;;;;;;7.65;3.35;;;;;;;11.91;27.34;93983.28;5062325;28;20024;-82
2021/04/16 13:19:36;;;;;;;6.72;2.92;;;;;;;12.24;27.21;93994.94;5064044;28;20071;-79
2021/04/16 13:22:09;;;;;;;7.18;3.00;;;;;;;12.35;26.29;93976.66;5071376;28;20495;-81
2021/04/16 13:24:35;;;;;;;6.18;2.80;;;;;;;12.38;26.56;93983.28;5072139;28;20020;-82
2021/04/16 13:27:03;;;;;;;4.35;2.92;;;;;;;12.52;26.41;93972.38;5089956;28;20024;-82
2021/04/16 13:29:30;;;;;;;9.45;2.95;;;;;;;12.97;27.25;93967.22;5090241;28;20028;-82
2021/04/16 13:31:55;;;;;;;4.43;2.90;;;;;;;13.56;26.55;93979.72;5089882;28;20436;-82
2021/04/16 13:34:22;;;;;;;10.38;3.70;;;;;;;14.10;24.85;93975.41;5069166;28;20177;-81
2021/04/16 13:36:47;;;;;;;4.43;2.80;;;;;;;14.54;24.57;93968.44;5090253;28;20051;-78
2021/04/16 13:39:13;;;;;;;6.32;3.08;;;;;;;14.68;23.05;93978.09;5090028;28;20044;-85
2021/04/16 13:41:38;;;;;;;8.95;3.13;;;;;;;14.51;22.80;93979.03;5061628;28;20495;-81
2021/04/16 13:44:05;;;;;;;5.82;2.90;;;;;;;14.28;23.13;93963.38;5057563;28;20059;-82
2021/04/16 13:46:33;;;;;;;7.38;3.10;;;;;;;14.23;23.15;93969.75;5090011;28;20028;-81
2021/04/16 13:49:00;;;;;;;6.22;3.17;;;;;;;14.56;22.73;93965.47;5063435;28;20415;-82
2021/04/16 13:51:26;;;;;;;4.60;2.85;;;;;;;14.82;22.12;93951.72;5090089;28;20497;-84
2021/04/16 13:53:52;;;;;;;8.88;2.90;;;;;;;14.92;22.17;93953.94;5063287;28;20161;-85
2021/04/16 13:56:18;;;;;;;9.10;3.17;;;;;;;14.70;23.03;93963.22;5064244;28;20063;-83
2021/04/16 13:58:44;;;;;;;8.68;3.22;;;;;;;14.36;22.49;93967.88;5065619;28;20024;-84
2021/04/16 14:01:11;;;;;;;7.75;3.17;;;;;;;14.19;22.14;93968.84;5071537;28;20024;-79
2021/04/16 14:03:40;;;;;;;8.45;3.15;;;;;;;14.28;23.26;93965.28;5066453;28;20107;-84
2021/04/16 14:06:28;;;;;;;9.45;3.00;;;;;;;14.48;22.28;93958.28;5064168;28;20035;-83